Time;durP1;ratioP1;P1;durP2;ratioP2;P2;SDS_P1;SDS_P2;PMS_P1;PMS_P2;Temp;Humidity;BMP_temperature;BMP_pressure;BME280_temperature;BME280_humidity;BME280_pressure;Samples;Min_cycle;Max_cycle;Signal;HPM_P1;HPM_P2
2022/09/14 00:00:00;;;;;;;12.50;4.77;;;;;;;;;;5094149;28;20509;-59
2022/09/14 00:02:26;;;;;;;11.23;5.13;;;;;;;;;;5062203;28;20061;-59
2022/09/14 00:04:53;;;;;;;14.67;5.97;;;;;;;;;;5069023;28;20165;-59
2022/09/14 00:07:19;;;;;;;12.93;6.03;;;;;;;;;;5067789;28;20041;-59
2022/09/14 00:09:45;;;;;;;14.57;6.43;;;;;;;;;;5068292;28;20040;-60
2022/09/14 00:12:11;;;;;;;13.63;7.20;;;;;;;;;;5068040;28;20052;-60
2022/09/14 00:14:38;;;;;;;11.57;6.43;;;;;;;;;;5065426;28;20047;-59
2022/09/14 00:17:04;;;;;;;11.13;5.80;;;;;;;;;;5059138;28;20386;-60
2022/09/14 00:19:30;;;;;;;10.23;5.90;;;;;;;;;;5069039;28;20123;-59
2022/09/14 00:21:57;;;;;;;11.13;5.63;;;;;;;;;;5067854;28;20068;-59
2022/09/14 00:24:26;;;;;;;12.67;6.60;;;;;;;;;;5056532;28;20036;-59
2022/09/14 00:26:52;;;;;;;12.73;6.07;;;;;;;;;;5067901;28;20131;-59
2022/09/14 00:29:19;;;;;;;10.57;6.33;;;;;;;;;;5068144;28;20070;-59
2022/09/14 00:31:45;;;;;;;12.63;5.97;;;;;;;;;;5067617;28;20043;-59
2022/09/14 00:34:13;;;;;;;11.00;5.40;;;;;;;;;;5068406;28;20045;-59
2022/09/14 00:36:41;;;;;;;12.33;5.53;;;;;;;;;;5067832;28;20090;-59
2022/09/14 00:39:07;;;;;;;14.97;5.80;;;;;;;;;;5068435;28;20028;-59
2022/09/14 00:41:34;;;;;;;13.60;6.80;;;;;;;;;;5061210;28;20037;-59
2022/09/14 00:44:03;;;;;;;11.40;5.40;;;;;;;;;;5067671;28;20055;-59
2022/09/14 00:46:30;;;;;;;10.53;4.90;;;;;;;;;;5060814;28;20041;-60
2022/09/14 00:48:58;;;;;;;8.73;4.70;;;;;;;;;;5068018;28;20544;-60
2022/09/14 00:51:24;;;;;;;9.57;5.17;;;;;;;;;;5066825;28;20121;-59
2022/09/14 00:53:51;;;;;;;15.17;4.40;;;;;;;;;;5059650;28;20060;-59
2022/09/14 00:56:17;;;;;;;11.50;4.40;;;;;;;;;;5048654;28;20060;-59
2022/09/14 00:58:44;;;;;;;10.63;4.27;;;;;;;;;;5060823;28;20140;-59
2022/09/14 01:01:10;;;;;;;9.67;4.60;;;;;;;;;;5068390;28;20052;-59
2022/09/14 01:03:37;;;;;;;13.27;5.40;;;;;;;;;;5068264;28;20049;-59
2022/09/14 01:06:21;;;;;;;10.87;5.60;;;;;;;;;;5069029;28;20044;-59
2022/09/14 01:08:56;;;;;;;12.40;5.17;;;;;;;;;;5068668;28;20045;-59
2022/09/14 01:11:30;;;;;;;11.47;6.10;;;;;;;;;;5068464;28;20052;-59
2022/09/14 01:13:56;;;;;;;10.77;5.70;;;;;;;;;;5068022;28;20069;-59
2022/09/14 01:16:36;;;;;;;9.90;5.17;;;;;;;;;;5068535;28;20059;-59
2022/09/14 01:19:10;;;;;;;16.33;5.77;;;;;;;;;;5068494;28;20498;-59
2022/09/14 01:21:37;;;;;;;15.53;5.33;;;;;;;;;;5068248;28;20079;-59
2022/09/14 01:24:18;;;;;;;14.83;5.47;;;;;;;;;;5068263;28;20052;-59
2022/09/14 01:27:11;;;;;;;14.97;5.83;;;;;;;;;;5068029;28;20067;-59
2022/09/14 01:29:42;;;;;;;13.90;5.30;;;;;;;;;;5067038;28;20387;-59
2022/09/14 01:32:14;;;;;;;12.37;5.53;;;;;;;;;;5068584;28;20166;-59
2022/09/14 01:34:45;;;;;;;15.50;5.87;;;;;;;;;;5067622;28;20060;-59
2022/09/14 01:37:17;;;;;;;10.20;5.73;;;;;;;;;;5068514;28;20048;-59
2022/09/14 01:39:45;;;;;;;14.38;5.65;;;;;;;;;;5068100;28;20737;-59
2022/09/14 01:42:12;;;;;;;15.10;6.67;;;;;;;;;;5068424;28;20495;-59
2022/09/14 01:44:40;;;;;;;13.03;6.53;;;;;;;;;;5068098;28;20447;-59
2022/09/14 01:47:13;;;;;;;14.73;5.83;;;;;;;;;;5067887;28;20052;-59
2022/09/14 01:49:41;;;;;;;12.53;6.20;;;;;;;;;;5068245;28;20098;-59
2022/09/14 01:52:13;;;;;;;15.00;6.57;;;;;;;;;;5068395;28;20097;-59
2022/09/14 01:54:45;;;;;;;13.77;6.80;;;;;;;;;;5068327;28;20045;-58
2022/09/14 01:57:37;;;;;;;18.23;6.27;;;;;;;;;;5068015;28;20585;-59
2022/09/14 02:00:06;;;;;;;16.70;7.00;;;;;;;;;;5066843;28;20083;-59
2022/09/14 02:02:40;;;;;;;20.30;8.03;;;;;;;;;;5067842;28;20041;-59
2022/09/14 02:05:06;;;;;;;;;;;;;;;;;;5068870;28;20119;-59
2022/09/14 02:07:32;;;;;;;13.40;6.67;;;;;;;;;;5068105;28;20467;-59
2022/09/14 02:09:58;;;;;;;16.63;7.23;;;;;;;;;;5067401;28;20048;-59
2022/09/14 02:12:25;;;;;;;15.27;7.03;;;;;;;;;;5069935;28;20552;-59
2022/09/14 02:14:52;;;;;;;16.43;7.17;;;;;;;;;;5071696;28;20045;-59
2022/09/14 02:17:18;;;;;;;14.50;7.93;;;;;;;;;;5071734;28;20516;-59
2022/09/14 02:19:49;;;;;;;15.67;7.90;;;;;;;;;;5071976;28;20047;-59
2022/09/14 02:22:15;;;;;;;14.13;7.53;;;;;;;;;;5071428;28;20048;-59
2022/09/14 02:24:41;;;;;;;18.47;8.90;;;;;;;;;;5071759;28;20051;-59
2022/09/14 02:27:07;;;;;;;16.47;7.27;;;;;;;;;;5071859;28;20047;-59
2022/09/14 02:29:34;;;;;;;18.13;8.13;;;;;;;;;;5070926;28;20055;-59
2022/09/14 02:32:12;;;;;;;16.30;8.47;;;;;;;;;;5072008;28;20041;-59
2022/09/14 02:34:38;;;;;;;16.90;7.77;;;;;;;;;;5071062;28;20115;-59
2022/09/14 02:37:13;;;;;;;16.43;7.40;;;;;;;;;;5071898;28;20049;-59
2022/09/14 02:39:58;;;;;;;13.97;7.47;;;;;;;;;;5071629;28;20037;-60
2022/09/14 02:42:40;;;;;;;19.30;9.10;;;;;;;;;;5071603;28;20430;-59
2022/09/14 02:45:06;;;;;;;10.13;7.53;;;;;;;;;;5071636;28;20075;-59
2022/09/14 02:47:39;;;;;;;12.57;6.47;;;;;;;;;;5071118;28;20067;-59
2022/09/14 02:50:17;;;;;;;12.67;5.77;;;;;;;;;;5071126;28;20087;-59
2022/09/14 02:52:47;;;;;;;12.00;6.93;;;;;;;;;;5071221;28;20048;-59
2022/09/14 02:55:17;;;;;;;15.57;6.33;;;;;;;;;;5071123;28;20048;-59
2022/09/14 02:58:02;;;;;;;15.57;5.97;;;;;;;;;;5070995;28;20059;-60
2022/09/14 03:00:30;;;;;;;9.23;5.67;;;;;;;;;;5070916;28;20453;-59
2022/09/14 03:02:56;;;;;;;7.80;5.77;;;;;;;;;;5071159;28;20051;-59
2022/09/14 03:05:22;;;;;;;10.93;5.90;;;;;;;;;;5070992;28;20040;-59
2022/09/14 03:07:48;;;;;;;9.37;5.47;;;;;;;;;;5071045;28;20736;-59
2022/09/14 03:10:14;;;;;;;9.23;5.73;;;;;;;;;;5070386;28;20064;-60
2022/09/14 03:12:40;;;;;;;14.10;5.93;;;;;;;;;;5070790;28;20044;-59
2022/09/14 03:15:08;;;;;;;11.17;6.90;;;;;;;;;;5070595;28;20075;-59
2022/09/14 03:17:34;;;;;;;12.73;6.20;;;;;;;;;;5070645;28;20041;-59
2022/09/14 03:20:00;;;;;;;16.17;6.97;;;;;;;;;;5070834;28;20042;-59
2022/09/14 03:22:26;;;;;;;11.17;6.50;;;;;;;;;;5070407;28;20055;-59
2022/09/14 03:24:52;;;;;;;15.60;7.77;;;;;;;;;;5070789;28;20053;-59
2022/09/14 03:27:18;;;;;;;18.97;9.17;;;;;;;;;;5070435;28;20036;-58
2022/09/14 03:29:44;;;;;;;16.10;8.17;;;;;;;;;;5069742;28;20052;-59
2022/09/14 03:32:11;;;;;;;12.20;7.13;;;;;;;;;;5070327;28;20506;-59
2022/09/14 03:34:37;;;;;;;11.67;6.60;;;;;;;;;;5070366;28;20052;-59
2022/09/14 03:37:03;;;;;;;11.40;6.50;;;;;;;;;;5070878;28;20823;-59
2022/09/14 03:39:29;;;;;;;14.93;8.10;;;;;;;;;;5070374;28;20556;-59
2022/09/14 03:41:55;;;;;;;20.77;8.20;;;;;;;;;;5069916;28;20090;-59
2022/09/14 03:44:21;;;;;;;17.60;8.73;;;;;;;;;;5070123;28;20133;-59
2022/09/14 03:46:47;;;;;;;15.90;7.73;;;;;;;;;;5070560;28;20462;-59
2022/09/14 03:49:13;;;;;;;19.97;7.80;;;;;;;;;;5069958;28;20051;-59
2022/09/14 03:51:39;;;;;;;18.00;8.20;;;;;;;;;;5070179;28;20041;-59
2022/09/14 03:54:05;;;;;;;19.87;9.67;;;;;;;;;;5069691;28;20091;-59
2022/09/14 03:56:31;;;;;;;21.13;9.33;;;;;;;;;;5069687;28;20679;-59
2022/09/14 03:58:57;;;;;;;19.87;8.47;;;;;;;;;;5069744;28;20056;-59
2022/09/14 04:01:23;;;;;;;17.83;8.07;;;;;;;;;;5069695;28;20063;-59
2022/09/14 04:03:50;;;;;;;20.47;7.40;;;;;;;;;;5070469;28;20048;-59
2022/09/14 04:06:17;;;;;;;14.47;6.90;;;;;;;;;;5069987;28;20046;-59
2022/09/14 04:08:43;;;;;;;14.60;6.90;;;;;;;;;;5069457;28;20509;-59
2022/09/14 04:11:14;;;;;;;14.60;6.80;;;;;;;;;;5069487;28;20052;-59
2022/09/14 04:13:41;;;;;;;17.07;7.10;;;;;;;;;;5069634;28;20567;-59
2022/09/14 04:16:07;;;;;;;11.63;6.47;;;;;;;;;;5069245;28;20411;-59
2022/09/14 04:18:33;;;;;;;9.77;6.10;;;;;;;;;;5068700;28;20084;-59
2022/09/14 04:21:07;;;;;;;16.60;8.30;;;;;;;;;;5069788;28;20127;-59
2022/09/14 04:23:33;;;;;;;13.68;6.45;;;;;;;;;;5069138;28;20459;-59
2022/09/14 04:25:59;;;;;;;10.83;6.60;;;;;;;;;;5069523;28;20509;-59
2022/09/14 04:28:25;;;;;;;11.97;6.80;;;;;;;;;;5069373;28;20052;-59
2022/09/14 04:31:01;;;;;;;14.77;7.20;;;;;;;;;;5068887;28;20048;-59
2022/09/14 04:33:31;;;;;;;15.00;7.87;;;;;;;;;;5069480;28;20132;-59
2022/09/14 04:35:58;;;;;;;12.40;7.63;;;;;;;;;;5068217;28;20056;-59
2022/09/14 04:38:24;;;;;;;14.67;7.70;;;;;;;;;;5069089;28;20132;-59
2022/09/14 04:40:50;;;;;;;19.17;9.17;;;;;;;;;;5069464;28;20415;-59
2022/09/14 04:43:16;;;;;;;17.30;8.13;;;;;;;;;;5068441;28;20049;-59
2022/09/14 04:45:42;;;;;;;16.03;8.63;;;;;;;;;;5068720;28;20049;-59
2022/09/14 04:48:08;;;;;;;19.43;9.03;;;;;;;;;;5068914;28;20502;-59
2022/09/14 04:50:34;;;;;;;16.03;8.30;;;;;;;;;;5068886;28;20398;-59
2022/09/14 04:53:01;;;;;;;21.87;10.83;;;;;;;;;;5068938;28;20048;-59
2022/09/14 04:55:27;;;;;;;19.67;9.23;;;;;;;;;;5068997;28;20044;-59
2022/09/14 04:57:53;;;;;;;13.70;8.07;;;;;;;;;;5068686;28;20048;-59
2022/09/14 05:00:19;;;;;;;15.63;8.57;;;;;;;;;;5067967;28;20410;-59
2022/09/14 05:02:46;;;;;;;15.93;8.87;;;;;;;;;;5066496;28;20402;-59
2022/09/14 05:05:12;;;;;;;14.60;8.80;;;;;;;;;;5066674;28;20044;-59
2022/09/14 05:07:38;;;;;;;21.63;10.87;;;;;;;;;;5066299;28;20052;-59
2022/09/14 05:10:04;;;;;;;16.50;8.63;;;;;;;;;;5066868;28;20415;-59
2022/09/14 05:12:30;;;;;;;14.83;8.73;;;;;;;;;;5066505;28;20052;-59
2022/09/14 05:14:56;;;;;;;16.03;8.60;;;;;;;;;;5066754;28;20059;-59
2022/09/14 05:17:22;;;;;;;18.00;8.03;;;;;;;;;;5067843;28;20052;-59
2022/09/14 05:19:48;;;;;;;14.40;8.17;;;;;;;;;;5068148;28;20043;-59
2022/09/14 05:22:14;;;;;;;19.80;9.27;;;;;;;;;;5067773;28;20040;-59
2022/09/14 05:24:41;;;;;;;16.37;8.47;;;;;;;;;;5068179;28;20051;-59
2022/09/14 05:27:07;;;;;;;17.70;9.17;;;;;;;;;;5067849;28;20132;-60
2022/09/14 05:29:33;;;;;;;19.57;9.20;;;;;;;;;;5067115;28;20032;-59
2022/09/14 05:31:59;;;;;;;22.07;10.43;;;;;;;;;;5068244;28;20569;-59
2022/09/14 05:34:25;;;;;;;24.53;9.80;;;;;;;;;;5067712;28;20163;-59
2022/09/14 05:36:51;;;;;;;16.20;10.57;;;;;;;;;;5067754;28;20076;-59
2022/09/14 05:39:17;;;;;;;13.63;7.40;;;;;;;;;;5068228;28;20079;-59
2022/09/14 05:41:43;;;;;;;13.87;7.07;;;;;;;;;;5068049;28;20102;-59
2022/09/14 05:44:09;;;;;;;17.60;9.17;;;;;;;;;;5067696;28;20139;-59
2022/09/14 05:46:35;;;;;;;20.97;9.47;;;;;;;;;;5073317;28;20056;-60
2022/09/14 05:49:02;;;;;;;14.97;8.17;;;;;;;;;;5067234;28;20152;-59
2022/09/14 05:51:28;;;;;;;17.00;9.07;;;;;;;;;;5062202;28;20048;-59
2022/09/14 05:53:55;;;;;;;16.77;8.70;;;;;;;;;;5072002;28;20044;-59
2022/09/14 05:56:22;;;;;;;16.77;8.83;;;;;;;;;;5070831;28;20137;-60
2022/09/14 05:58:49;;;;;;;12.77;7.30;;;;;;;;;;5068241;28;20128;-59
2022/09/14 06:01:20;;;;;;;13.93;8.30;;;;;;;;;;5071375;28;20138;-59
2022/09/14 06:03:46;;;;;;;14.13;8.87;;;;;;;;;;5070565;28;20048;-59
2022/09/14 06:06:13;;;;;;;16.53;8.00;;;;;;;;;;5070717;28;20387;-59
2022/09/14 06:08:39;;;;;;;19.23;8.80;;;;;;;;;;5061750;28;20546;-59
2022/09/14 06:11:08;;;;;;;12.20;8.13;;;;;;;;;;5068247;28;20048;-59
2022/09/14 06:13:34;;;;;;;21.43;8.40;;;;;;;;;;5070428;28;20087;-59
2022/09/14 06:16:01;;;;;;;15.30;7.47;;;;;;;;;;5070394;28;20037;-59
2022/09/14 06:18:28;;;;;;;12.33;7.57;;;;;;;;;;5069616;28;20383;-59
2022/09/14 06:20:54;;;;;;;13.23;6.87;;;;;;;;;;5068795;28;20040;-59
2022/09/14 06:23:20;;;;;;;9.17;7.10;;;;;;;;;;5071011;28;20055;-58
2022/09/14 06:25:46;;;;;;;12.50;7.73;;;;;;;;;;5070676;28;20049;-59
2022/09/14 06:28:12;;;;;;;16.43;6.83;;;;;;;;;;5070731;28;20483;-59
2022/09/14 06:30:42;;;;;;;11.03;6.70;;;;;;;;;;5071235;28;20047;-59
2022/09/14 06:33:08;;;;;;;13.30;6.70;;;;;;;;;;5071025;28;20051;-60
2022/09/14 06:35:34;;;;;;;10.60;7.23;;;;;;;;;;5069474;28;20438;-60
2022/09/14 06:38:03;;;;;;;16.70;7.30;;;;;;;;;;5070807;28;20036;-60
2022/09/14 06:40:29;;;;;;;12.00;6.63;;;;;;;;;;5070491;28;20047;-60
2022/09/14 06:42:57;;;;;;;14.53;7.23;;;;;;;;;;5070750;28;20414;-60
2022/09/14 06:45:23;;;;;;;14.77;6.57;;;;;;;;;;5071312;28;20051;-60
2022/09/14 06:47:49;;;;;;;16.00;6.70;;;;;;;;;;5070688;28;20052;-60
2022/09/14 06:50:15;;;;;;;13.97;6.47;;;;;;;;;;5069134;28;20059;-60
2022/09/14 06:52:41;;;;;;;15.03;7.30;;;;;;;;;;5069300;28;20052;-59
2022/09/14 06:55:07;;;;;;;11.50;6.17;;;;;;;;;;5069696;28;20478;-59
2022/09/14 06:57:34;;;;;;;12.57;7.37;;;;;;;;;;5069160;28;20049;-59
2022/09/14 07:00:00;;;;;;;11.07;6.40;;;;;;;;;;5070441;28;20524;-59
2022/09/14 07:02:26;;;;;;;13.87;5.93;;;;;;;;;;5068415;28;20050;-59
2022/09/14 07:04:52;;;;;;;13.03;6.20;;;;;;;;;;5068111;28;20049;-59
2022/09/14 07:07:18;;;;;;;13.47;7.03;;;;;;;;;;5069592;28;20403;-60
2022/09/14 07:09:44;;;;;;;8.67;5.90;;;;;;;;;;5070033;28;20056;-60
2022/09/14 07:12:10;;;;;;;12.57;6.40;;;;;;;;;;5069986;28;20051;-59
2022/09/14 07:14:37;;;;;;;14.20;7.27;;;;;;;;;;5069940;28;20036;-59
2022/09/14 07:17:03;;;;;;;12.47;6.40;;;;;;;;;;5069492;28;20475;-59
2022/09/14 07:19:29;;;;;;;10.83;6.03;;;;;;;;;;5070277;28;20059;-60
2022/09/14 07:21:55;;;;;;;10.67;5.47;;;;;;;;;;5069533;28;20040;-58
2022/09/14 07:24:21;;;;;;;15.10;6.03;;;;;;;;;;5070151;28;20403;-59
2022/09/14 07:26:48;;;;;;;8.20;4.47;;;;;;;;;;5069625;28;20045;-59
2022/09/14 07:29:15;;;;;;;10.40;5.27;;;;;;;;;;5069429;28;20049;-59
2022/09/14 07:31:42;;;;;;;12.43;4.70;;;;;;;;;;5069052;28;20095;-60
2022/09/14 07:34:09;;;;;;;11.57;4.87;;;;;;;;;;5069658;28;20045;-59
2022/09/14 07:36:36;;;;;;;13.20;4.00;;;;;;;;;;5068988;28;20499;-60
2022/09/14 07:39:03;;;;;;;8.60;3.37;;;;;;;;;;5068901;28;20044;-60
2022/09/14 07:41:31;;;;;;;11.30;2.50;;;;;;;;;;5069226;28;20041;-61
2022/09/14 07:43:59;;;;;;;5.97;3.20;;;;;;;;;;5070058;28;20044;-58
2022/09/14 07:46:26;;;;;;;5.80;3.00;;;;;;;;;;5069352;28;20094;-58
2022/09/14 07:49:01;;;;;;;6.47;1.90;;;;;;;;;;5069396;28;20132;-58
2022/09/14 07:51:28;;;;;;;10.67;2.67;;;;;;;;;;5069249;28;20573;-58
2022/09/14 07:53:54;;;;;;;7.53;2.50;;;;;;;;;;5068762;28;20080;-59
2022/09/14 07:56:21;;;;;;;7.00;2.17;;;;;;;;;;5069537;28;20044;-59
2022/09/14 07:58:47;;;;;;;4.20;2.00;;;;;;;;;;5067658;28;20055;-59
2022/09/14 08:01:14;;;;;;;6.03;2.07;;;;;;;;;;5069286;28;20079;-59
2022/09/14 08:03:42;;;;;;;7.53;2.53;;;;;;;;;;5068987;28;20481;-60
2022/09/14 08:06:12;;;;;;;5.93;1.83;;;;;;;;;;5068720;28;20048;-60
2022/09/14 08:08:40;;;;;;;2.67;1.40;;;;;;;;;;5068812;28;20048;-60
2022/09/14 08:11:09;;;;;;;3.70;1.80;;;;;;;;;;5068520;28;20061;-59
2022/09/14 08:13:36;;;;;;;7.87;1.83;;;;;;;;;;5068999;28;20040;-59
2022/09/14 08:16:03;;;;;;;5.70;1.40;;;;;;;;;;5068381;28;20515;-60
2022/09/14 08:18:30;;;;;;;4.13;1.00;;;;;;;;;;5068988;28;20048;-59
2022/09/14 08:20:56;;;;;;;6.77;1.53;;;;;;;;;;5068289;28;20041;-60
2022/09/14 08:23:22;;;;;;;6.50;1.30;;;;;;;;;;5068559;28;20102;-60
2022/09/14 08:25:48;;;;;;;4.47;1.47;;;;;;;;;;5068648;28;20088;-59
2022/09/14 08:28:14;;;;;;;6.40;1.20;;;;;;;;;;5068887;28;20055;-60
2022/09/14 08:30:40;;;;;;;7.53;1.90;;;;;;;;;;5068322;28;20044;-60
2022/09/14 08:33:07;;;;;;;7.30;1.40;;;;;;;;;;5067594;28;20043;-60
2022/09/14 08:35:33;;;;;;;5.73;1.33;;;;;;;;;;5068503;28;20045;-60
2022/09/14 08:37:58;;;;;;;7.00;1.60;;;;;;;;;;5068226;28;20124;-60
2022/09/14 08:40:25;;;;;;;5.43;1.33;;;;;;;;;;5068227;28;20044;-60
2022/09/14 08:42:51;;;;;;;6.50;1.13;;;;;;;;;;5068019;28;20059;-60
2022/09/14 08:45:18;;;;;;;5.73;1.47;;;;;;;;;;5068407;28;20529;-59
2022/09/14 08:47:44;;;;;;;7.57;1.47;;;;;;;;;;5067483;28;20459;-60
2022/09/14 08:50:11;;;;;;;8.63;1.73;;;;;;;;;;5068416;28;20041;-59
2022/09/14 08:52:47;;;;;;;5.73;1.50;;;;;;;;;;5068405;28;20161;-60
2022/09/14 08:55:20;;;;;;;9.63;1.37;;;;;;;;;;5068496;28;20429;-60
2022/09/14 08:57:46;;;;;;;5.53;1.63;;;;;;;;;;5068050;28;20040;-60
2022/09/14 09:00:15;;;;;;;6.33;1.23;;;;;;;;;;5067637;28;20406;-60
2022/09/14 09:03:00;;;;;;;4.70;1.33;;;;;;;;;;5068412;28;20418;-60
2022/09/14 09:06:04;;;;;;;4.20;1.10;;;;;;;;;;5068161;28;20498;-60
2022/09/14 09:08:38;;;;;;;2.53;0.90;;;;;;;;;;5025731;28;20500;-60
2022/09/14 09:11:07;;;;;;;4.37;0.90;;;;;;;;;;5009141;28;20084;-60
2022/09/14 09:13:36;;;;;;;6.80;1.03;;;;;;;;;;5048931;28;20495;-59
2022/09/14 09:16:04;;;;;;;4.37;0.90;;;;;;;;;;5067489;28;20490;-59
2022/09/14 09:18:41;;;;;;;4.60;1.03;;;;;;;;;;5068132;28;20051;-59
2022/09/14 09:21:12;;;;;;;3.10;0.53;;;;;;;;;;5067710;28;20271;-59
2022/09/14 09:23:38;;;;;;;5.73;0.90;;;;;;;;;;5067525;28;20045;-60
2022/09/14 09:26:24;;;;;;;3.83;0.67;;;;;;;;;;5067623;28;20048;-59
2022/09/14 09:28:52;;;;;;;5.23;0.80;;;;;;;;;;5067999;28;20044;-60
2022/09/14 09:31:19;;;;;;;2.03;0.60;;;;;;;;;;5068013;28;20167;-60
2022/09/14 09:33:47;;;;;;;3.20;0.87;;;;;;;;;;5067977;28;20106;-60
2022/09/14 09:36:14;;;;;;;3.80;0.63;;;;;;;;;;5067863;28;20040;-60
2022/09/14 09:38:40;;;;;;;3.40;0.87;;;;;;;;;;5067458;28;20067;-60
2022/09/14 09:41:19;;;;;;;4.97;0.80;;;;;;;;;;5067755;28;20051;-60
2022/09/14 09:44:15;;;;;;;4.93;1.00;;;;;;;;;;5067976;28;20052;-60
2022/09/14 09:46:50;;;;;;;4.10;1.10;;;;;;;;;;5058620;28;20144;-60
2022/09/14 09:49:20;;;;;;;5.87;0.83;;;;;;;;;;5067461;28;20504;-60
2022/09/14 09:51:47;;;;;;;4.10;0.80;;;;;;;;;;5067804;28;20526;-59
2022/09/14 09:54:13;;;;;;;6.80;0.90;;;;;;;;;;5067750;28;20093;-60
2022/09/14 09:56:40;;;;;;;4.83;0.80;;;;;;;;;;5067469;28;20509;-60
2022/09/14 09:59:27;;;;;;;2.57;0.40;;;;;;;;;;5067587;28;20131;-60
2022/09/14 10:01:55;;;;;;;3.90;0.70;;;;;;;;;;5066531;28;20040;-60
2022/09/14 10:04:22;;;;;;;3.33;0.80;;;;;;;;;;5065558;28;20124;-60
2022/09/14 10:06:49;;;;;;;6.37;0.70;;;;;;;;;;5066767;28;20044;-60
2022/09/14 10:09:17;;;;;;;2.53;0.60;;;;;;;;;;5067650;28;20072;-60
2022/09/14 10:11:44;;;;;;;4.60;0.80;;;;;;;;;;5067054;28;20183;-60
2022/09/14 10:14:30;;;;;;;4.10;0.77;;;;;;;;;;5066128;28;20055;-60
2022/09/14 10:17:07;;;;;;;4.80;0.70;;;;;;;;;;5066622;28;20560;-60
2022/09/14 10:19:33;;;;;;;4.80;0.60;;;;;;;;;;5067470;28;20134;-60
2022/09/14 10:22:04;;;;;;;2.83;0.50;;;;;;;;;;5067118;28;20045;-60
2022/09/14 10:24:32;;;;;;;0.90;0.30;;;;;;;;;;5066841;28;20102;-60
2022/09/14 10:26:58;;;;;;;1.93;0.50;;;;;;;;;;5067483;28;20048;-60
2022/09/14 10:29:28;;;;;;;2.10;0.50;;;;;;;;;;5065317;28;20044;-60
2022/09/14 10:31:58;;;;;;;2.27;0.63;;;;;;;;;;5066940;28;20044;-60
2022/09/14 10:34:24;;;;;;;2.70;0.67;;;;;;;;;;5069742;28;20048;-60
2022/09/14 10:36:59;;;;;;;2.70;0.80;;;;;;;;;;5071231;28;20040;-60
2022/09/14 10:39:39;;;;;;;3.33;0.60;;;;;;;;;;5070498;28;20460;-60
2022/09/14 10:42:14;;;;;;;3.53;0.47;;;;;;;;;;5071234;28;20048;-60
2022/09/14 10:44:42;;;;;;;1.77;0.73;;;;;;;;;;5070758;28;20054;-60
2022/09/14 10:47:08;;;;;;;2.58;0.63;;;;;;;;;;5069971;28;20533;-60
2022/09/14 10:49:49;;;;;;;3.60;0.60;;;;;;;;;;5070746;28;20584;-60
2022/09/14 10:52:24;;;;;;;3.03;0.50;;;;;;;;;;5070316;28;20090;-60
2022/09/14 10:55:09;;;;;;;1.65;0.32;;;;;;;;;;5072131;28;20040;-60
2022/09/14 10:57:41;;;;;;;3.00;0.40;;;;;;;;;;5050836;28;20048;-60
2022/09/14 11:00:12;;;;;;;6.15;0.90;;;;;;;;;;5057800;28;20048;-60
2022/09/14 11:03:07;;;;;;;2.47;0.70;;;;;;;;;;5064043;28;20110;-60
2022/09/14 11:06:00;;;;;;;4.32;0.57;;;;;;;;;;5065688;28;20044;-60
2022/09/14 11:08:35;;;;;;;3.15;0.50;;;;;;;;;;5049554;28;20048;-60
2022/09/14 11:11:21;;;;;;;1.50;0.47;;;;;;;;;;5059804;28;20719;-60
2022/09/14 11:13:47;;;;;;;1.85;0.57;;;;;;;;;;5070343;28;20045;-60
2022/09/14 11:16:25;;;;;;;2.50;0.50;;;;;;;;;;5070122;28;20045;-60
2022/09/14 11:18:57;;;;;;;1.95;0.65;;;;;;;;;;5069902;28;20048;-60
2022/09/14 11:21:35;;;;;;;2.63;0.63;;;;;;;;;;5070016;28;20326;-60
2022/09/14 11:24:06;;;;;;;1.75;0.70;;;;;;;;;;5070189;28;20047;-60
2022/09/14 11:26:35;;;;;;;2.75;0.60;;;;;;;;;;5070090;28;20067;-60
2022/09/14 11:29:19;;;;;;;1.08;0.50;;;;;;;;;;5069997;28;20130;-60
2022/09/14 11:31:51;;;;;;;2.67;0.50;;;;;;;;;;5069266;28;20127;-60
2022/09/14 11:34:30;;;;;;;2.22;0.70;;;;;;;;;;5069911;28;20047;-60
2022/09/14 11:37:03;;;;;;;5.07;0.82;;;;;;;;;;5069645;28;20048;-60
2022/09/14 11:39:30;;;;;;;5.57;0.80;;;;;;;;;;5069576;28;20434;-60
2022/09/14 11:42:08;;;;;;;2.10;0.50;;;;;;;;;;5069326;28;20048;-59
2022/09/14 11:44:38;;;;;;;1.48;0.50;;;;;;;;;;5069152;28;20049;-60
2022/09/14 11:47:11;;;;;;;4.00;0.60;;;;;;;;;;5068507;28;20127;-59
2022/09/14 11:49:40;;;;;;;2.67;0.50;;;;;;;;;;5069651;28;20536;-60
2022/09/14 11:52:19;;;;;;;3.72;0.82;;;;;;;;;;5069302;28;20040;-60
2022/09/14 11:54:46;;;;;;;4.88;0.85;;;;;;;;;;5069118;28;20509;-60
2022/09/14 11:57:20;;;;;;;6.57;1.17;;;;;;;;;;5069492;28;20091;-60
2022/09/14 11:59:49;;;;;;;2.42;0.52;;;;;;;;;;5068959;28;20123;-59
2022/09/14 12:02:25;;;;;;;3.65;0.90;;;;;;;;;;5069268;28;20057;-59
2022/09/14 12:05:07;;;;;;;3.80;0.70;;;;;;;;;;5069591;28;20053;-60
2022/09/14 12:07:42;;;;;;;2.22;0.55;;;;;;;;;;5069561;28;20048;-59
2022/09/14 12:10:16;;;;;;;2.08;0.63;;;;;;;;;;5068623;28;20048;-59
2022/09/14 12:13:01;;;;;;;3.90;0.73;;;;;;;;;;5068807;28;20057;-59
2022/09/14 12:15:27;;;;;;;2.88;0.60;;;;;;;;;;5068867;28;20118;-59
2022/09/14 12:17:54;;;;;;;4.53;0.73;;;;;;;;;;5069000;28;20088;-60
2022/09/14 12:20:32;;;;;;;6.25;0.90;;;;;;;;;;5069085;28;20546;-60
2022/09/14 12:23:10;;;;;;;2.38;0.50;;;;;;;;;;5068217;28;20418;-59
2022/09/14 12:25:37;;;;;;;4.00;0.75;;;;;;;;;;5068669;28;20064;-60
2022/09/14 12:28:24;;;;;;;2.33;0.85;;;;;;;;;;5068763;28;20046;-59
2022/09/14 12:30:53;;;;;;;2.08;0.70;;;;;;;;;;5068708;28;20040;-60
2022/09/14 12:33:31;;;;;;;2.65;0.80;;;;;;;;;;5068728;28;20413;-60
2022/09/14 12:36:16;;;;;;;1.90;0.55;;;;;;;;;;5068040;28;20056;-60
2022/09/14 12:39:02;;;;;;;2.22;0.82;;;;;;;;;;5068349;28;20082;-60
2022/09/14 12:41:28;;;;;;;2.17;0.75;;;;;;;;;;5068469;28;20059;-59
2022/09/14 12:43:55;;;;;;;2.05;0.80;;;;;;;;;;5068330;28;20045;-60
2022/09/14 12:46:21;;;;;;;2.78;0.60;;;;;;;;;;5067960;28;20179;-60
2022/09/14 12:48:47;;;;;;;1.85;0.52;;;;;;;;;;5068476;28;20087;-60
2022/09/14 12:51:22;;;;;;;3.83;0.88;;;;;;;;;;5068314;28;20052;-60
2022/09/14 12:53:52;;;;;;;2.88;0.80;;;;;;;;;;5068460;28;20114;-60
2022/09/14 12:56:22;;;;;;;2.17;0.45;;;;;;;;;;5067682;28;20442;-60
2022/09/14 12:58:48;;;;;;;3.33;0.60;;;;;;;;;;5068074;28;20049;-60
2022/09/14 13:01:22;;;;;;;5.88;1.00;;;;;;;;;;5068473;28;20048;-60
2022/09/14 13:03:49;;;;;;;6.28;0.95;;;;;;;;;;5068423;28;20517;-60
2022/09/14 13:06:16;;;;;;;3.70;1.00;;;;;;;;;;5068246;28;20047;-59
2022/09/14 13:08:43;;;;;;;3.00;0.60;;;;;;;;;;5067947;28;20071;-59
2022/09/14 13:11:09;;;;;;;3.53;1.10;;;;;;;;;;5068135;28;20052;-59
2022/09/14 13:13:36;;;;;;;1.75;0.68;;;;;;;;;;5067864;28;20056;-60
2022/09/14 13:16:04;;;;;;;3.05;0.80;;;;;;;;;;5067885;28;20102;-60
2022/09/14 13:18:31;;;;;;;5.53;1.00;;;;;;;;;;5068204;28;20521;-59
2022/09/14 13:20:58;;;;;;;3.67;0.88;;;;;;;;;;5067812;28;20119;-60
2022/09/14 13:23:30;;;;;;;3.30;1.08;;;;;;;;;;5067772;28;20048;-60
2022/09/14 13:25:56;;;;;;;3.58;1.15;;;;;;;;;;5066372;28;20158;-60
2022/09/14 13:28:25;;;;;;;2.47;0.75;;;;;;;;;;5068050;28;20041;-59
2022/09/14 13:30:56;;;;;;;3.20;0.90;;;;;;;;;;5067912;28;20198;-60
2022/09/14 13:33:22;;;;;;;2.35;0.75;;;;;;;;;;5067564;28;20049;-60
2022/09/14 13:35:49;;;;;;;4.38;0.90;;;;;;;;;;5067526;28;20051;-59
2022/09/14 13:38:17;;;;;;;2.30;0.70;;;;;;;;;;5067814;28;20446;-59
2022/09/14 13:40:44;;;;;;;5.40;1.25;;;;;;;;;;5066873;28;20048;-60
2022/09/14 13:43:10;;;;;;;4.15;1.15;;;;;;;;;;5067717;28;20055;-59
2022/09/14 13:45:36;;;;;;;3.00;0.65;;;;;;;;;;5067843;28;20056;-60
2022/09/14 13:48:03;;;;;;;3.28;0.90;;;;;;;;;;5067831;28;20054;-59
2022/09/14 13:50:29;;;;;;;3.60;0.90;;;;;;;;;;5066992;28;20039;-59
2022/09/14 13:52:55;;;;;;;3.92;0.90;;;;;;;;;;5066621;28;20050;-59
2022/09/14 13:55:29;;;;;;;3.95;0.80;;;;;;;;;;5068048;28;20425;-60
2022/09/14 13:58:15;;;;;;;2.53;0.80;;;;;;;;;;5062461;28;20041;-60
2022/09/14 14:00:56;;;;;;;2.15;0.63;;;;;;;;;;5047128;28;20512;-60
2022/09/14 14:03:22;;;;;;;5.05;0.80;;;;;;;;;;5055080;28;20059;-59
2022/09/14 14:05:48;;;;;;;6.65;1.85;;;;;;;;;;5067951;28;20055;-60
2022/09/14 14:08:25;;;;;;;4.72;0.85;;;;;;;;;;5070745;28;20667;-59
2022/09/14 14:10:53;;;;;;;4.65;0.98;;;;;;;;;;5063050;28;20056;-59
2022/09/14 14:13:26;;;;;;;3.15;0.95;;;;;;;;;;5071609;28;20087;-59
2022/09/14 14:15:52;;;;;;;5.18;1.10;;;;;;;;;;5071950;28;20048;-59
2022/09/14 14:18:37;;;;;;;4.75;1.02;;;;;;;;;;5071504;28;20041;-59
2022/09/14 14:21:24;;;;;;;4.05;1.08;;;;;;;;;;5070761;28;20043;-60
2022/09/14 14:23:50;;;;;;;6.00;0.95;;;;;;;;;;5063468;28;20060;-59
2022/09/14 14:26:25;;;;;;;4.05;0.98;;;;;;;;;;5071321;28;20073;-60
2022/09/14 14:28:52;;;;;;;6.07;1.00;;;;;;;;;;5071783;28;20052;-59
2022/09/14 14:31:19;;;;;;;2.60;1.00;;;;;;;;;;5079341;28;20051;-60
2022/09/14 14:33:46;;;;;;;5.35;0.95;;;;;;;;;;5071942;28;20052;-59
2022/09/14 14:36:13;;;;;;;5.45;1.25;;;;;;;;;;5059665;28;20049;-59
2022/09/14 14:38:41;;;;;;;4.57;0.93;;;;;;;;;;5058883;28;20051;-59
2022/09/14 14:41:11;;;;;;;2.33;0.82;;;;;;;;;;5086126;28;20040;-59
2022/09/14 14:43:37;;;;;;;4.65;1.02;;;;;;;;;;5089668;28;20565;-59
2022/09/14 14:46:06;;;;;;;1.40;0.60;;;;;;;;;;5074076;28;20060;-59
2022/09/14 14:48:32;;;;;;;5.05;0.80;;;;;;;;;;5070879;28;20506;-59